Terminal Aerodrome Forecast
Issued by NWS

Home | Current Version | Previous Version | Text Only | Print | Product List | Glossary On
Versions: 1 2 3 4 5 6 7 8 9 10 11 12 13 14 15 16 17 18 19 20 21 22 23 24 25 26 27 28 29 30
000
FTUS46 KOTX 131735
TAFPUW
TAF
KPUW 131735Z 1318/1418 24013KT P6SM BKN024
      TEMPO 1318/1320 SCT024 SCT200
     FM132000 22015G21KT P6SM SCT120 BKN200
     FM140200 19009KT 6SM -RA BKN029 OVC050
     FM140800 21012G20KT P6SM VCSH BKN040 BKN100
     FM141400 23011KT P6SM BKN025=

USA.gov is the U.S. government's official web portal to all federal, state and local government web resources and services.